Time;durP1;ratioP1;P1;durP2;ratioP2;P2;SDS_P1;SDS_P2;PMS_P1;PMS_P2;Temp;Humidity;BMP_temperature;BMP_pressure;BME280_temperature;BME280_humidity;BME280_pressure;Samples;Min_cycle;Max_cycle;Signal;HPM_P1;HPM_P2
2024/04/17 00:01:34;;;;;;;19.15;5.43;;;;;;;13.71;88.50;95127.81;7396672;19;19994;-57
2024/04/17 00:04:00;;;;;;;16.85;6.65;;;;;;;13.61;89.73;95129.44;7396492;19;20018;-53
2024/04/17 00:06:25;;;;;;;20.08;6.97;;;;;;;13.93;86.70;95120.97;7396565;19;20353;-56
2024/04/17 00:08:51;;;;;;;14.45;5.55;;;;;;;14.19;83.96;95119.97;7396841;19;20082;-59
2024/04/17 00:11:16;;;;;;;12.40;5.25;;;;;;;14.18;83.11;95119.13;7396283;19;20513;-58
2024/04/17 00:13:42;;;;;;;19.75;6.05;;;;;;;14.26;82.27;95121.19;7396392;19;20022;-58
2024/04/17 00:16:08;;;;;;;15.73;6.05;;;;;;;14.28;82.22;95117.50;7396393;19;20003;-54
2024/04/17 00:18:34;;;;;;;13.23;5.35;;;;;;;13.92;85.38;95103.53;7396102;19;20334;-52
2024/04/17 00:20:59;;;;;;;16.45;6.10;;;;;;;13.77;86.82;95111.63;7396060;19;19994;-57
2024/04/17 00:23:25;;;;;;;12.63;5.40;;;;;;;13.71;87.21;95109.44;7396376;19;20002;-60
2024/04/17 00:25:51;;;;;;;18.35;5.63;;;;;;;13.48;89.83;95101.41;7395864;19;20430;-56
2024/04/17 00:28:17;;;;;;;16.00;5.93;;;;;;;13.57;89.33;95109.63;7396228;19;20010;-54
2024/04/17 00:30:43;;;;;;;20.35;6.18;;;;;;;13.87;86.16;95105.66;7395909;19;20465;-57
2024/04/17 00:33:08;;;;;;;17.67;6.25;;;;;;;13.58;87.59;95101.59;7395731;19;19995;-58
2024/04/17 00:35:34;;;;;;;17.55;6.18;;;;;;;13.60;86.98;95107.59;7396005;19;20022;-53
2024/04/17 00:37:59;;;;;;;13.43;5.65;;;;;;;13.45;88.53;95106.06;7393998;19;20026;-56
2024/04/17 00:40:25;;;;;;;17.10;6.07;;;;;;;13.22;90.77;95116.41;7395943;19;20002;-59
2024/04/17 00:42:52;;;;;;;14.45;6.20;;;;;;;13.36;91.29;95118.03;7395425;19;20517;-52
2024/04/17 00:45:17;;;;;;;16.45;6.45;;;;;;;13.50;89.20;95117.09;7395906;19;20022;-54
2024/04/17 00:47:43;;;;;;;20.00;7.38;;;;;;;13.51;89.33;95116.97;7395305;19;19990;-58
2024/04/17 00:50:11;;;;;;;15.85;6.35;;;;;;;13.50;89.68;95120.56;7395420;19;20457;-59
2024/04/17 00:52:38;;;;;;;18.85;5.93;;;;;;;13.00;92.69;95124.03;7395153;19;20014;-55
2024/04/17 00:55:05;;;;;;;13.57;6.50;;;;;;;13.07;92.71;95113.94;7395123;19;20005;-55
2024/04/17 00:57:33;;;;;;;15.43;6.35;;;;;;;12.79;95.05;95115.88;7393463;19;20009;-60
2024/04/17 01:00:00;;;;;;;18.33;6.50;;;;;;;12.98;94.11;95111.97;7394945;19;20538;-60
2024/04/17 01:02:26;;;;;;;21.25;5.82;;;;;;;12.59;96.43;95107.63;7394881;19;20007;-57
2024/04/17 01:04:51;;;;;;;19.85;6.43;;;;;;;12.71;97.39;95095.44;7394221;19;20014;-59
2024/04/17 01:07:17;;;;;;;19.92;6.93;;;;;;;12.86;94.82;95083.00;7394904;19;20003;-59
2024/04/17 01:09:43;;;;;;;18.92;6.30;;;;;;;12.62;96.79;95080.31;7394702;19;19999;-52
2024/04/17 01:12:08;;;;;;;16.35;6.38;;;;;;;12.70;96.63;95078.00;7394630;19;20019;-56
2024/04/17 01:14:35;;;;;;;15.35;6.53;;;;;;;12.85;95.14;95076.09;7394523;19;19991;-55
2024/04/17 01:17:01;;;;;;;18.77;7.57;;;;;;;12.81;96.23;95077.25;7393626;19;20070;-58
2024/04/17 01:19:27;;;;;;;19.65;6.95;;;;;;;12.55;97.36;95066.78;7394890;19;20377;-57
2024/04/17 01:21:52;;;;;;;21.42;6.72;;;;;;;12.01;100.00;95069.50;7394701;19;20006;-57
2024/04/17 01:24:18;;;;;;;14.10;6.65;;;;;;;12.07;100.00;95055.16;7394427;19;19998;-54
2024/04/17 01:26:43;;;;;;;16.55;7.15;;;;;;;12.30;100.00;95058.00;7394648;19;20002;-57
2024/04/17 01:29:09;;;;;;;20.98;7.75;;;;;;;12.10;100.00;95052.31;7394192;19;20001;-55
2024/04/17 01:31:35;;;;;;;21.92;6.82;;;;;;;12.12;100.00;95039.13;7394503;19;20028;-58
2024/04/17 01:34:01;;;;;;;19.23;6.70;;;;;;;12.08;100.00;95038.50;7394075;19;19999;-54
2024/04/17 01:36:26;;;;;;;20.50;6.75;;;;;;;12.11;100.00;95038.31;7393501;19;20011;-55
2024/04/17 01:38:52;;;;;;;19.17;6.53;;;;;;;12.05;100.00;95046.53;7394425;19;19998;-53
2024/04/17 01:41:17;;;;;;;16.45;6.82;;;;;;;12.28;100.00;95051.19;7393829;19;20007;-56
2024/04/17 01:43:43;;;;;;;19.88;7.40;;;;;;;11.91;100.00;95049.25;7394143;19;20084;-57
2024/04/17 01:46:08;;;;;;;16.77;7.68;;;;;;;12.50;99.31;95047.94;7393746;19;19995;-58
2024/04/17 01:48:34;;;;;;;18.08;6.18;;;;;;;12.83;95.44;95051.75;7393604;19;19995;-57
2024/04/17 01:50:59;;;;;;;18.67;6.53;;;;;;;12.38;96.13;95058.31;7393738;19;20035;-57
2024/04/17 01:53:25;;;;;;;16.55;6.32;;;;;;;11.91;100.00;95044.84;7394076;19;20465;-59
2024/04/17 01:55:50;;;;;;;17.50;6.60;;;;;;;12.43;100.00;95047.50;7393659;19;20030;-59
2024/04/17 01:58:16;;;;;;;15.02;6.63;;;;;;;12.00;100.00;95054.72;7391276;19;19999;-54
2024/04/17 02:00:41;;;;;;;14.55;6.40;;;;;;;11.93;100.00;95052.59;7393364;19;20003;-59
2024/04/17 02:03:09;;;;;;;16.52;6.45;;;;;;;11.73;100.00;95044.28;7393652;19;20002;-58
2024/04/17 02:05:34;;;;;;;14.80;6.43;;;;;;;11.59;100.00;95029.50;7391859;19;20002;-57
2024/04/17 02:08:00;;;;;;;16.17;6.35;;;;;;;11.48;100.00;95023.22;7393237;19;20343;-57
2024/04/17 02:10:26;;;;;;;12.52;6.65;;;;;;;11.70;100.00;95023.53;7399904;19;19990;-53
2024/04/17 02:12:51;;;;;;;20.98;7.45;;;;;;;12.10;100.00;95015.63;7400779;19;20006;-55
2024/04/17 02:15:16;;;;;;;14.02;6.90;;;;;;;11.90;100.00;95008.28;7400354;19;20437;-57
2024/04/17 02:17:42;;;;;;;15.55;6.93;;;;;;;11.81;100.00;95002.72;7398305;19;20001;-57
2024/04/17 02:20:08;;;;;;;19.27;6.15;;;;;;;11.31;100.00;94994.66;7400594;19;19994;-58
2024/04/17 02:22:33;;;;;;;13.82;6.70;;;;;;;11.11;100.00;95000.25;7400062;19;20457;-60
2024/04/17 02:24:59;;;;;;;12.13;5.88;;;;;;;11.11;100.00;95000.25;7400022;19;20341;-61
2024/04/17 02:27:25;;;;;;;10.80;6.13;;;;;;;11.05;100.00;95008.50;7400402;19;20003;-53
2024/04/17 02:29:53;;;;;;;16.65;7.07;;;;;;;11.21;100.00;95000.50;7400243;19;20477;-54
2024/04/17 02:32:18;;;;;;;11.45;6.05;;;;;;;10.91;100.00;94998.09;7400110;19;20025;-53
2024/04/17 02:34:44;;;;;;;21.08;7.00;;;;;;;11.01;100.00;95004.41;7399649;19;19994;-57
2024/04/17 02:37:10;;;;;;;17.42;6.45;;;;;;;10.93;100.00;95007.50;7398402;19;19991;-59
2024/04/17 02:39:36;;;;;;;16.48;6.75;;;;;;;11.06;100.00;95007.59;7399623;19;19999;-57
2024/04/17 02:42:02;;;;;;;20.08;7.97;;;;;;;10.98;100.00;95010.69;7399797;19;20022;-57
2024/04/17 02:44:28;;;;;;;20.30;7.53;;;;;;;11.04;100.00;95005.97;7399820;19;20457;-58
2024/04/17 02:46:54;;;;;;;16.17;6.53;;;;;;;10.88;100.00;94993.91;7399586;19;20035;-58
2024/04/17 02:49:19;;;;;;;12.90;6.13;;;;;;;10.77;100.00;94997.19;7399230;19;20361;-58
2024/04/17 02:51:45;;;;;;;14.70;6.93;;;;;;;10.72;100.00;94987.00;7399234;19;20006;-57
2024/04/17 02:54:11;;;;;;;14.00;6.63;;;;;;;10.61;100.00;94982.50;7399451;19;20017;-56
2024/04/17 02:56:36;;;;;;;17.38;7.88;;;;;;;10.67;100.00;94988.25;7398210;19;20362;-57
2024/04/17 02:59:02;;;;;;;17.95;7.60;;;;;;;10.77;100.00;94991.13;7398918;19;20003;-57
2024/04/17 03:01:27;;;;;;;17.35;6.90;;;;;;;10.61;100.00;94977.25;7398794;19;20006;-57
2024/04/17 03:03:53;;;;;;;14.63;6.93;;;;;;;10.52;100.00;94980.44;7398360;19;20078;-57
2024/04/17 03:06:18;;;;;;;14.48;7.35;;;;;;;10.45;100.00;94986.97;7399143;19;20013;-56
2024/04/17 03:08:46;;;;;;;12.68;6.97;;;;;;;10.45;100.00;94995.66;7398588;19;20005;-58
2024/04/17 03:11:11;;;;;;;12.38;7.07;;;;;;;10.46;100.00;94994.75;7398450;19;20363;-55
2024/04/17 03:13:37;;;;;;;15.00;6.82;;;;;;;10.56;100.00;94988.91;7398734;19;20002;-57
2024/04/17 03:16:03;;;;;;;16.52;7.05;;;;;;;10.53;100.00;94982.13;7398177;19;19995;-57
2024/04/17 03:18:29;;;;;;;18.30;6.65;;;;;;;10.58;100.00;94990.53;7398259;19;20086;-60
2024/04/17 03:21:01;;;;;;;15.52;7.75;;;;;;;11.09;100.00;95002.16;7395457;19;20007;-53
2024/04/17 03:23:27;;;;;;;15.90;6.75;;;;;;;10.78;100.00;95003.28;7398425;19;20017;-55
2024/04/17 03:25:57;;;;;;;19.77;7.85;;;;;;;10.68;100.00;95003.84;7397897;19;20010;-57
2024/04/17 03:28:22;;;;;;;14.40;7.78;;;;;;;10.69;100.00;94997.66;7398310;19;20006;-60
2024/04/17 03:30:48;;;;;;;13.23;7.18;;;;;;;10.68;100.00;95001.22;7397880;19;20330;-57
2024/04/17 03:33:14;;;;;;;21.17;9.05;;;;;;;11.53;100.00;94990.63;7397753;19;19995;-58
2024/04/17 03:35:39;;;;;;;34.65;9.27;;;;;;;12.03;100.00;94998.63;7397562;19;19995;-58
2024/04/17 03:38:05;;;;;;;28.38;8.95;;;;;;;12.58;100.00;94985.25;7395733;19;20003;-54
2024/04/17 03:40:30;;;;;;;20.85;8.18;;;;;;;12.35;100.00;94990.38;7397905;19;20010;-55
2024/04/17 03:42:56;;;;;;;25.23;8.88;;;;;;;12.51;100.00;94984.03;7397883;19;20105;-60
2024/04/17 03:45:22;;;;;;;22.33;8.60;;;;;;;13.16;100.00;94972.47;7397328;19;20021;-54
2024/04/17 03:47:48;;;;;;;24.63;8.10;;;;;;;13.09;99.29;94949.28;7397166;19;20058;-56
2024/04/17 03:50:13;;;;;;;17.77;7.10;;;;;;;12.65;100.00;94943.72;7397199;19;19998;-61
2024/04/17 03:52:39;;;;;;;23.92;7.72;;;;;;;13.04;100.00;94969.81;7397091;19;19991;-56
2024/04/17 03:55:05;;;;;;;23.88;8.10;;;;;;;13.22;98.61;94985.97;7397107;19;20314;-58
2024/04/17 03:57:30;;;;;;;23.70;8.13;;;;;;;13.27;98.18;94993.50;7395563;19;20023;-57
2024/04/17 03:59:56;;;;;;;25.02;8.40;;;;;;;13.47;97.39;94992.06;7395302;19;20344;-62
2024/04/17 04:02:22;;;;;;;22.30;7.65;;;;;;;13.48;96.67;95004.22;7396737;19;20087;-57
2024/04/17 04:04:47;;;;;;;22.30;8.70;;;;;;;13.43;97.17;95021.28;7395617;19;20002;-59
2024/04/17 04:07:13;;;;;;;21.92;7.63;;;;;;;13.37;98.19;95025.19;7396569;19;20017;-52
2024/04/17 04:09:38;;;;;;;22.30;7.15;;;;;;;13.52;96.68;95029.34;7396639;19;20066;-57
2024/04/17 04:12:05;;;;;;;24.63;7.78;;;;;;;13.48;97.16;95021.75;7396401;19;20003;-61
2024/04/17 04:14:30;;;;;;;18.33;7.80;;;;;;;13.45;97.25;95008.88;7396792;19;20398;-60
2024/04/17 04:16:56;;;;;;;29.80;7.60;;;;;;;13.47;97.10;95020.09;7395556;19;20002;-58
2024/04/17 04:19:21;;;;;;;24.90;8.50;;;;;;;13.55;96.26;95027.44;7396236;19;20002;-62
2024/04/17 04:21:47;;;;;;;20.52;8.05;;;;;;;13.39;98.90;95018.88;7396540;19;20009;-56
2024/04/17 04:24:13;;;;;;;22.05;8.18;;;;;;;13.38;98.67;95005.84;7396042;19;20030;-54
2024/04/17 04:26:39;;;;;;;23.23;7.47;;;;;;;13.48;97.77;95006.00;7396074;19;20002;-62
2024/04/17 04:29:04;;;;;;;18.55;7.93;;;;;;;13.71;96.76;95006.97;7395899;19;20002;-60
2024/04/17 04:31:30;;;;;;;21.38;7.85;;;;;;;13.91;93.76;95002.00;7394879;19;20351;-54
2024/04/17 04:33:56;;;;;;;28.17;8.15;;;;;;;14.42;90.52;95006.94;7396201;19;20013;-58
2024/04/17 04:36:22;;;;;;;23.35;7.47;;;;;;;14.03;92.57;94989.72;7395297;19;20356;-57
2024/04/17 04:38:47;;;;;;;18.48;7.72;;;;;;;13.72;94.96;94984.97;7395653;19;19999;-57
2024/04/17 04:41:13;;;;;;;22.63;7.53;;;;;;;13.84;93.63;94990.25;7395542;19;19999;-59
2024/04/17 04:43:38;;;;;;;23.42;7.70;;;;;;;13.72;94.81;94987.59;7395557;19;20003;-57
2024/04/17 04:46:04;;;;;;;24.60;8.05;;;;;;;13.77;94.81;94993.38;7395279;19;20026;-56
2024/04/17 04:48:30;;;;;;;17.27;7.07;;;;;;;13.61;96.63;94983.16;7395279;19;19995;-54
2024/04/17 04:50:55;;;;;;;25.67;7.40;;;;;;;13.33;99.57;94995.69;7395705;19;20012;-60
2024/04/17 04:53:21;;;;;;;21.30;7.32;;;;;;;13.69;96.68;94997.53;7395607;19;20014;-58
2024/04/17 04:56:02;;;;;;;22.90;8.07;;;;;;;13.40;99.22;94999.53;7395061;19;20457;-56
2024/04/17 04:58:28;;;;;;;19.90;7.07;;;;;;;13.76;95.07;95007.44;7395101;19;20038;-58
2024/04/17 05:00:54;;;;;;;15.57;6.50;;;;;;;13.85;94.33;95002.47;7394956;19;20082;-57
2024/04/17 05:03:23;;;;;;;23.92;7.13;;;;;;;14.10;91.87;95004.06;7394936;19;20479;-61
2024/04/17 05:05:49;;;;;;;24.13;7.60;;;;;;;15.46;83.74;95001.34;7392973;19;20007;-56
2024/04/17 05:08:15;;;;;;;26.33;7.30;;;;;;;16.72;75.38;95012.91;7394989;19;20011;-59
2024/04/17 05:10:40;;;;;;;15.32;6.45;;;;;;;16.38;77.03;95006.13;7393733;19;20016;-59
2024/04/17 05:13:06;;;;;;;24.60;6.95;;;;;;;16.53;74.53;95002.16;7395196;19;20536;-54
2024/04/17 05:15:32;;;;;;;20.63;6.88;;;;;;;16.98;71.91;94997.41;7394573;19;19999;-60
2024/04/17 05:17:57;;;;;;;23.98;6.38;;;;;;;16.47;74.22;95007.97;7393057;19;20058;-59
2024/04/17 05:20:23;;;;;;;25.38;6.68;;;;;;;15.52;81.11;95002.66;7394783;19;20002;-58
2024/04/17 05:22:48;;;;;;;20.23;6.88;;;;;;;15.77;79.00;94992.69;7394372;19;20466;-58
2024/04/17 05:25:16;;;;;;;25.17;6.03;;;;;;;15.72;79.59;94987.84;7394463;19;20070;-57
2024/04/17 05:27:42;;;;;;;26.08;6.50;;;;;;;17.65;71.18;94988.91;7394302;19;19999;-56
2024/04/17 05:30:10;;;;;;;21.33;6.57;;;;;;;17.84;67.48;94994.28;7394205;19;20519;-58
2024/04/17 05:32:36;;;;;;;20.75;6.70;;;;;;;18.03;65.88;94985.50;7394161;19;20007;-59
2024/04/17 05:35:02;;;;;;;19.08;6.53;;;;;;;18.65;65.81;95002.72;7394405;19;19998;-56
2024/04/17 05:37:27;;;;;;;26.00;6.35;;;;;;;18.24;65.57;94997.72;7392732;19;20486;-60
2024/04/17 05:39:53;;;;;;;21.80;6.82;;;;;;;18.94;63.75;95002.56;7394306;19;20007;-55
2024/04/17 05:42:18;;;;;;;23.38;6.45;;;;;;;19.88;58.91;94998.88;7394006;19;19995;-55
2024/04/17 05:44:44;;;;;;;19.50;6.65;;;;;;;17.26;68.50;94989.72;7398961;19;20021;-61
2024/04/17 05:47:10;;;;;;;24.88;7.57;;;;;;;16.94;72.28;94990.75;7401676;19;20458;-50
2024/04/17 05:49:35;;;;;;;25.45;6.07;;;;;;;17.26;71.68;94997.66;7401478;19;20356;-58
2024/04/17 05:52:01;;;;;;;21.25;7.00;;;;;;;19.13;64.83;95008.78;7401071;19;20345;-58
2024/04/17 05:54:26;;;;;;;28.20;6.30;;;;;;;18.01;69.29;94990.94;7401103;19;19998;-58
2024/04/17 05:56:52;;;;;;;22.70;6.97;;;;;;;16.89;72.62;94977.94;7399816;19;19998;-54
2024/04/17 05:59:17;;;;;;;20.77;5.82;;;;;;;18.19;69.43;94988.38;7401000;19;20014;-56
2024/04/17 06:01:43;;;;;;;17.65;5.90;;;;;;;17.11;73.28;94988.44;7400799;19;20010;-57
2024/04/17 06:04:08;;;;;;;22.17;6.63;;;;;;;18.40;67.65;94992.66;7400107;19;20018;-59
2024/04/17 06:06:34;;;;;;;22.08;6.47;;;;;;;18.30;67.50;94992.69;7401228;19;20010;-60
2024/04/17 06:09:00;;;;;;;23.95;6.50;;;;;;;16.90;71.59;94977.00;7400530;19;20318;-51
2024/04/17 06:11:26;;;;;;;20.08;6.22;;;;;;;18.46;67.52;94993.06;7400445;19;19999;-54
2024/04/17 06:13:51;;;;;;;32.17;6.85;;;;;;;18.96;65.73;94988.38;7400851;19;20022;-55
2024/04/17 06:16:17;;;;;;;21.58;6.55;;;;;;;18.46;66.58;94990.41;7399963;19;20353;-54
2024/04/17 06:18:42;;;;;;;16.65;6.38;;;;;;;18.28;71.09;94978.78;7400183;19;20003;-50
2024/04/17 06:21:08;;;;;;;22.13;7.30;;;;;;;18.51;70.02;94980.22;7400506;19;19995;-59
2024/04/17 06:23:33;;;;;;;20.90;7.18;;;;;;;18.31;68.26;94985.59;7400068;19;20485;-60
2024/04/17 06:25:59;;;;;;;21.35;7.70;;;;;;;19.14;63.25;94997.19;7400401;19;19999;-63
2024/04/17 06:28:25;;;;;;;25.35;6.35;;;;;;;19.31;63.94;94998.22;7399907;19;19999;-51
2024/04/17 06:30:50;;;;;;;18.58;6.72;;;;;;;19.44;64.26;94994.34;7399893;19;20076;-58
2024/04/17 06:33:16;;;;;;;25.02;6.78;;;;;;;21.71;57.64;94993.50;7399725;19;20019;-55
2024/04/17 06:35:42;;;;;;;22.10;6.55;;;;;;;18.58;65.32;94986.59;7398223;19;20011;-54
2024/04/17 06:38:08;;;;;;;17.98;6.25;;;;;;;17.56;68.81;94995.00;7397473;19;19995;-54
2024/04/17 06:40:34;;;;;;;18.98;7.22;;;;;;;17.96;68.66;94998.44;7399914;19;20326;-55
2024/04/17 06:42:59;;;;;;;21.30;7.00;;;;;;;17.51;70.72;94986.66;7399409;19;20083;-55
2024/04/17 06:45:25;;;;;;;23.63;8.05;;;;;;;17.32;73.68;94971.63;7399820;19;20010;-55
2024/04/17 06:47:51;;;;;;;26.58;7.07;;;;;;;17.79;70.63;94981.50;7399359;19;20346;-56
2024/04/17 06:50:16;;;;;;;26.65;6.63;;;;;;;17.08;73.47;94963.16;7399579;19;20010;-59
2024/04/17 06:52:42;;;;;;;22.35;7.65;;;;;;;17.49;72.04;94964.84;7399140;19;20468;-58
2024/04/17 06:55:08;;;;;;;23.98;7.50;;;;;;;18.67;68.49;94947.81;7398624;19;19998;-55
2024/04/17 06:57:33;;;;;;;25.70;6.65;;;;;;;18.38;69.31;94965.50;7397324;19;20377;-55
2024/04/17 06:59:59;;;;;;;18.33;5.75;;;;;;;19.92;62.95;94951.63;7398771;19;19999;-61
2024/04/17 07:02:24;;;;;;;22.23;6.15;;;;;;;20.96;59.49;94945.53;7398907;19;20058;-59
2024/04/17 07:04:50;;;;;;;18.60;6.13;;;;;;;19.88;63.50;94943.16;7397625;19;20075;-62
2024/04/17 07:07:16;;;;;;;26.02;5.75;;;;;;;19.92;62.09;94948.97;7398692;19;20028;-57
2024/04/17 07:09:41;;;;;;;20.08;6.22;;;;;;;20.06;61.28;94935.19;7398701;19;19999;-60
2024/04/17 07:12:07;;;;;;;20.17;5.78;;;;;;;20.60;59.13;94935.09;7398506;19;19991;-57
2024/04/17 07:14:34;;;;;;;22.95;5.65;;;;;;;20.32;59.39;94942.28;7398300;19;19991;-57
2024/04/17 07:16:59;;;;;;;19.98;5.35;;;;;;;21.03;56.19;94925.28;7397832;19;20018;-62
2024/04/17 07:19:25;;;;;;;18.50;5.20;;;;;;;20.78;58.44;94929.69;7398701;19;20519;-58
2024/04/17 07:21:51;;;;;;;22.27;5.30;;;;;;;21.28;55.99;94932.47;7398474;19;20367;-57
2024/04/17 07:24:17;;;;;;;15.93;5.15;;;;;;;21.85;56.74;94944.13;7398002;19;20010;-57
2024/04/17 07:26:43;;;;;;;18.17;4.88;;;;;;;21.64;55.38;94926.81;7397964;19;20003;-54
2024/04/17 07:29:08;;;;;;;17.90;5.55;;;;;;;20.67;56.73;94917.50;7397841;19;20070;-58
2024/04/17 07:31:34;;;;;;;18.65;5.93;;;;;;;21.50;53.57;94925.69;7398159;19;20002;-61
2024/04/17 07:33:59;;;;;;;16.00;5.70;;;;;;;20.27;57.41;94923.34;7396806;19;20350;-60
2024/04/17 07:36:25;;;;;;;19.70;5.25;;;;;;;21.92;53.63;94929.19;7397249;19;19995;-57
2024/04/17 07:38:51;;;;;;;21.95;5.28;;;;;;;21.56;55.20;94929.50;7397921;19;20014;-60
2024/04/17 07:41:16;;;;;;;19.55;4.88;;;;;;;22.61;52.95;94936.84;7397849;19;20009;-56
2024/04/17 07:43:42;;;;;;;17.95;4.75;;;;;;;21.45;51.29;94930.66;7397385;19;20033;-59
2024/04/17 07:46:07;;;;;;;17.92;5.68;;;;;;;22.54;52.28;94932.16;7397274;19;20342;-57
2024/04/17 07:48:33;;;;;;;14.75;4.88;;;;;;;22.74;50.44;94917.63;7397658;19;20018;-61
2024/04/17 07:50:59;;;;;;;17.90;4.88;;;;;;;22.90;49.73;94908.72;7397253;19;20431;-58
2024/04/17 07:53:24;;;;;;;18.77;5.15;;;;;;;22.15;50.46;94912.47;7396901;19;20036;-52
2024/04/17 07:55:50;;;;;;;16.90;4.40;;;;;;;22.43;50.84;94904.06;7396910;19;19995;-58
2024/04/17 07:58:16;;;;;;;13.93;4.82;;;;;;;22.66;48.22;94902.53;7395514;19;20027;-57
2024/04/17 08:00:41;;;;;;;16.50;4.78;;;;;;;21.97;51.22;94902.03;7396873;19;20481;-59
2024/04/17 08:03:08;;;;;;;20.63;4.82;;;;;;;22.67;49.90;94889.00;7396809;19;19995;-56
2024/04/17 08:05:33;;;;;;;19.60;4.93;;;;;;;22.77;49.73;94890.63;7395580;19;20018;-57
2024/04/17 08:07:59;;;;;;;13.32;4.78;;;;;;;22.07;50.01;94891.22;7395460;19;20011;-57
2024/04/17 08:10:24;;;;;;;26.67;5.45;;;;;;;22.54;49.50;94881.56;7396458;19;20027;-56
2024/04/17 08:12:53;;;;;;;20.13;5.05;;;;;;;22.28;49.90;94876.50;7396837;19;20023;-59
2024/04/17 08:15:21;;;;;;;17.10;4.60;;;;;;;22.46;50.28;94874.41;7396435;19;20522;-58
2024/04/17 08:17:48;;;;;;;20.60;4.80;;;;;;;22.72;49.97;94881.31;7395064;19;20374;-54
2024/04/17 08:20:14;;;;;;;14.65;5.03;;;;;;;21.69;52.29;94883.75;7396206;19;20007;-55
2024/04/17 08:22:39;;;;;;;19.20;4.93;;;;;;;21.66;51.52;94876.13;7396078;19;20018;-60
2024/04/17 08:25:05;;;;;;;19.77;4.30;;;;;;;22.00;51.12;94871.59;7396187;19;20003;-57
2024/04/17 08:27:30;;;;;;;16.60;4.57;;;;;;;22.24;50.64;94876.00;7396075;19;19995;-58
2024/04/17 08:29:56;;;;;;;15.77;4.38;;;;;;;22.16;49.77;94876.06;7395967;19;19995;-57
2024/04/17 08:32:22;;;;;;;19.50;5.25;;;;;;;21.92;49.42;94880.44;7395864;19;20002;-53
2024/04/17 08:34:47;;;;;;;20.63;4.40;;;;;;;22.04;51.19;94870.25;7396049;19;19998;-57
2024/04/17 08:37:13;;;;;;;23.33;4.47;;;;;;;21.68;50.22;94868.81;7393630;19;20355;-58
2024/04/17 08:39:38;;;;;;;16.40;4.10;;;;;;;21.72;49.91;94880.78;7395954;19;20015;-56
2024/04/17 08:42:06;;;;;;;15.48;4.55;;;;;;;21.58;50.54;94866.31;7395642;19;20368;-57
2024/04/17 08:44:35;;;;;;;29.65;5.10;;;;;;;21.31;50.68;94884.31;7395394;19;20022;-53
2024/04/17 08:47:03;;;;;;;16.90;4.63;;;;;;;21.34;50.07;94874.16;7395351;19;20002;-53
2024/04/17 08:49:33;;;;;;;31.30;6.05;;;;;;;21.68;49.95;94871.47;7395228;19;20017;-62
2024/04/17 08:52:01;;;;;;;18.30;4.28;;;;;;;22.44;48.41;94849.81;7395158;19;20002;-57
2024/04/17 08:54:26;;;;;;;14.48;4.63;;;;;;;21.87;48.86;94851.69;7394993;19;19999;-58
2024/04/17 08:56:54;;;;;;;14.93;4.55;;;;;;;22.05;47.72;94856.78;7394822;19;20018;-56
2024/04/17 08:59:20;;;;;;;17.20;4.72;;;;;;;22.09;47.43;94851.94;7394987;19;20010;-58
2024/04/17 09:01:47;;;;;;;13.07;4.35;;;;;;;22.49;46.29;94837.81;7394954;19;20013;-60
2024/04/17 09:04:14;;;;;;;15.02;5.43;;;;;;;22.95;44.41;94834.38;7394295;19;20006;-53
2024/04/17 09:06:40;;;;;;;17.65;4.45;;;;;;;22.47;44.24;94835.31;7394972;19;20010;-56
2024/04/17 09:09:09;;;;;;;18.80;4.50;;;;;;;22.18;44.74;94832.28;7394797;19;20461;-52
2024/04/17 09:11:35;;;;;;;13.88;3.92;;;;;;;22.61;43.92;94819.63;7395217;19;20023;-53
2024/04/17 09:14:01;;;;;;;19.38;4.70;;;;;;;22.35;44.76;94826.88;7394643;19;20686;-56
2024/04/17 09:16:26;;;;;;;13.93;3.28;;;;;;;22.58;42.22;94818.16;7394206;19;20073;-56
2024/04/17 09:18:52;;;;;;;22.92;3.95;;;;;;;22.72;41.58;94819.22;7400145;19;20006;-61
2024/04/17 09:21:18;;;;;;;12.90;3.75;;;;;;;22.90;40.04;94810.94;7402099;19;20346;-57
2024/04/17 09:23:43;;;;;;;17.85;4.35;;;;;;;23.25;40.51;94802.50;7402039;19;20002;-58
2024/04/17 09:26:17;;;;;;;16.48;4.72;;;;;;;22.94;40.14;94798.91;7402015;19;20014;-59
2024/04/17 09:28:45;;;;;;;20.05;4.13;;;;;;;23.16;39.71;94811.56;7401997;19;19998;-60
2024/04/17 09:31:11;;;;;;;11.00;3.90;;;;;;;22.73;40.34;94810.22;7401829;19;20014;-59
2024/04/17 09:33:47;;;;;;;18.58;4.95;;;;;;;23.28;40.84;94793.31;7402048;19;20003;-60
2024/04/17 09:36:13;;;;;;;20.00;3.85;;;;;;;23.16;40.79;94779.56;7401518;19;20007;-57
2024/04/17 09:38:40;;;;;;;30.48;4.32;;;;;;;23.30;39.92;94780.63;7401608;19;20006;-60
2024/04/17 09:41:06;;;;;;;19.60;4.65;;;;;;;22.27;42.00;94779.00;7401840;19;19999;-58
2024/04/17 09:43:31;;;;;;;19.15;4.53;;;;;;;22.11;41.46;94770.09;7401356;19;20365;-57
2024/04/17 09:45:59;;;;;;;20.65;4.72;;;;;;;21.90;42.30;94784.81;7401336;19;20012;-57
2024/04/17 09:48:27;;;;;;;17.05;4.32;;;;;;;22.12;41.64;94785.03;7401254;19;20014;-56
2024/04/17 09:51:04;;;;;;;9.45;3.50;;;;;;;21.99;41.27;94763.47;7401553;19;20037;-60
2024/04/17 09:53:33;;;;;;;13.80;3.85;;;;;;;21.67;42.08;94779.38;7401212;19;20035;-58
2024/04/17 09:55:59;;;;;;;21.08;4.63;;;;;;;21.99;41.08;94771.47;7401071;19;20003;-55
2024/04/17 09:58:32;;;;;;;21.10;4.10;;;;;;;21.69;42.35;94758.75;7398235;19;20452;-56
2024/04/17 10:01:07;;;;;;;13.25;3.60;;;;;;;22.25;42.29;94757.03;7400929;19;19998;-56
2024/04/17 10:03:34;;;;;;;23.48;3.88;;;;;;;22.05;40.71;94749.47;7401250;19;20349;-57
2024/04/17 10:06:01;;;;;;;16.85;3.85;;;;;;;22.20;41.09;94750.41;7398483;19;20520;-59
2024/04/17 10:08:34;;;;;;;17.40;4.10;;;;;;;22.36;40.71;94742.50;7400941;19;20429;-54
2024/04/17 10:11:00;;;;;;;17.75;3.70;;;;;;;21.98;40.90;94751.19;7400934;19;20013;-56
2024/04/17 10:13:26;;;;;;;18.45;3.90;;;;;;;22.04;41.44;94734.53;7400464;19;20337;-54
2024/04/17 10:15:53;;;;;;;17.55;3.83;;;;;;;22.10;41.81;94733.84;7400694;19;20006;-56
2024/04/17 10:18:19;;;;;;;15.55;4.03;;;;;;;22.42;41.71;94739.13;7397718;19;20002;-59
2024/04/17 10:20:45;;;;;;;18.85;4.45;;;;;;;22.05;42.05;94737.00;7400199;19;20006;-57
2024/04/17 10:23:14;;;;;;;14.45;4.20;;;;;;;22.00;41.28;94728.72;7400095;19;20465;-57
2024/04/17 10:25:57;;;;;;;13.65;3.90;;;;;;;22.09;41.17;94742.81;7399962;19;20011;-56
2024/04/17 10:28:26;;;;;;;19.98;4.20;;;;;;;22.76;41.13;94729.94;7400041;19;20002;-58
2024/04/17 10:30:56;;;;;;;15.32;4.68;;;;;;;22.61;41.38;94740.53;7398711;19;20015;-57
2024/04/17 10:33:30;;;;;;;18.35;4.25;;;;;;;22.14;42.07;94723.66;7400264;19;20010;-58
2024/04/17 10:35:56;;;;;;;19.80;4.82;;;;;;;21.97;42.59;94739.69;7399781;19;20009;-57
2024/04/17 10:38:24;;;;;;;25.15;4.28;;;;;;;21.95;42.47;94731.06;7397382;19;20465;-58
2024/04/17 10:40:53;;;;;;;18.70;4.93;;;;;;;22.38;42.41;94722.69;7399697;19;20003;-57
2024/04/17 10:43:21;;;;;;;19.83;4.43;;;;;;;22.06;42.86;94722.69;7399899;19;20027;-55
2024/04/17 10:45:55;;;;;;;18.45;4.65;;;;;;;22.06;43.74;94704.06;7399956;19;20010;-56
2024/04/17 10:48:21;;;;;;;15.65;4.95;;;;;;;22.26;43.01;94697.47;7399799;19;20041;-53
2024/04/17 10:50:46;;;;;;;21.38;4.30;;;;;;;22.84;43.12;94697.03;7399261;19;19991;-58
2024/04/17 10:53:13;;;;;;;12.50;4.13;;;;;;;22.21;42.73;94704.16;7399315;19;20003;-56
2024/04/17 10:55:39;;;;;;;14.63;3.92;;;;;;;21.73;43.64;94693.53;7399003;19;20088;-60
2024/04/17 10:58:05;;;;;;;24.48;5.13;;;;;;;22.04;43.36;94683.97;7397042;19;19995;-57
2024/04/17 11:00:30;;;;;;;18.75;4.63;;;;;;;21.98;42.92;94682.84;7398967;19;19995;-56
2024/04/17 11:02:58;;;;;;;21.75;4.47;;;;;;;22.03;44.87;94661.81;7398733;19;19991;-57
2024/04/17 11:05:26;;;;;;;19.95;4.45;;;;;;;22.15;43.11;94678.22;7396804;19;20006;-58
2024/04/17 11:07:55;;;;;;;24.00;4.68;;;;;;;22.20;43.78;94685.69;7398674;19;20374;-54
2024/04/17 11:10:20;;;;;;;22.15;4.90;;;;;;;22.25;44.54;94672.69;7398535;19;20003;-52
2024/04/17 11:12:46;;;;;;;22.95;4.13;;;;;;;22.09;43.80;94673.59;7398404;19;20014;-54
2024/04/17 11:15:12;;;;;;;21.02;4.20;;;;;;;21.72;43.28;94665.28;7398276;19;20005;-57
2024/04/17 11:17:40;;;;;;;16.95;4.53;;;;;;;22.09;43.34;94677.09;7396882;19;19999;-54
2024/04/17 11:20:08;;;;;;;20.80;4.55;;;;;;;22.00;44.25;94670.16;7398277;19;20021;-56